Salem, New Jersey
Current Conditions -  °F | °C
As of 4:14 AM on Wednesday 22 Oct 2014 (Local Time) from KILG Reporting Station
Light Rain Light Rain  
Wind Chill: 54°   Ceiling: 1400
Heat Index: 54°   Visibility: 10mi
Dew Point: 52°   Wind: 12mph
Humidity: 93%   Direction: 10°N
Pressure: 29.84"   Gusts: NA
Location:  39.57°N, 75.47°W
Report Text: KILG 220814Z 01010KT 10SM -RA OVC014 12/11 A2984 RMK AO2 P0002 T01220111
Loading
Personal Weather Stations






























Interactive Weather Map
Tropical Storm Tracking
New forecast layout! Learn more

10-Day Weather Forecast

Advertisements
Track Severe Weather on mobile